createdAt,value
2023-05-10T04:03:57.868Z,100.00
2023-05-10T04:08:09.718Z,100.00
2023-05-10T04:12:21.278Z,100.00
2023-05-10T04:16:32.812Z,100.00
2023-05-10T04:20:44.373Z,100.00
2023-05-10T04:24:55.905Z,100.00
2023-05-10T04:29:07.713Z,100.00
2023-05-10T04:33:19.210Z,100.00
2023-05-10T04:37:30.735Z,100.00
2023-05-10T04:41:42.288Z,100.00
2023-05-10T04:45:57.017Z,100.00
2023-05-10T04:50:09.100Z,100.00
2023-05-10T04:54:20.767Z,100.00
2023-05-10T04:58:32.283Z,100.00
2023-05-10T05:02:46.222Z,100.00
2023-05-10T05:06:58.037Z,100.00
2023-05-10T05:11:09.588Z,100.00
2023-05-10T05:15:21.089Z,100.00
2023-05-10T05:19:32.597Z,100.00
2023-05-10T05:23:44.466Z,100.00
2023-05-10T05:27:56.041Z,100.00
2023-05-10T05:32:09.346Z,100.00
2023-05-10T05:36:21.140Z,100.00
2023-05-10T05:40:32.723Z,100.00
2023-05-10T05:44:44.279Z,100.00
2023-05-10T05:48:55.776Z,100.00
2023-05-10T05:53:07.328Z,100.00
2023-05-10T05:57:18.853Z,100.00
2023-05-10T06:01:30.369Z,100.00
2023-05-10T06:05:42.013Z,100.00
2023-05-10T06:09:53.515Z,100.00
2023-05-10T06:14:05.650Z,100.00
2023-05-10T06:18:17.328Z,100.00
2023-05-10T06:22:29.409Z,100.00
2023-05-10T06:26:40.943Z,100.00
2023-05-10T06:30:52.468Z,100.00
2023-05-10T06:35:04.286Z,100.00
2023-05-10T06:39:15.882Z,100.00
2023-05-10T06:43:29.448Z,100.00
2023-05-10T06:47:41.533Z,100.00
2023-05-10T06:51:53.074Z,100.00
2023-05-10T06:56:04.723Z,100.00
2023-05-10T07:00:17.134Z,100.00
2023-05-10T07:04:28.860Z,100.00
2023-05-10T07:08:40.524Z,100.00
2023-05-10T07:12:52.214Z,100.00
2023-05-10T07:17:04.737Z,100.00
2023-05-10T07:21:16.306Z,100.00
2023-05-10T07:25:27.903Z,100.00
2023-05-10T07:29:39.847Z,100.00
2023-05-10T07:33:51.414Z,100.00
2023-05-10T07:38:03.274Z,100.00
2023-05-10T07:42:14.976Z,100.00
2023-05-10T07:46:26.596Z,100.00
2023-05-10T07:50:38.169Z,100.00
2023-05-10T07:54:49.784Z,100.00
2023-05-10T07:59:01.953Z,100.00
2023-05-10T08:03:14.336Z,100.00
2023-05-10T08:07:26.230Z,100.00
2023-05-10T08:11:37.870Z,100.00
2023-05-10T08:15:49.647Z,100.00
2023-05-10T08:20:01.329Z,99.25
2023-05-10T08:24:12.856Z,100.00
2023-05-10T08:28:24.487Z,98.75
2023-05-10T08:32:36.125Z,98.55
2023-05-10T08:36:47.749Z,96.24
2023-05-10T08:41:00.330Z,95.41
2023-05-10T08:45:12.610Z,93.82
2023-05-10T08:49:26.157Z,93.98
2023-05-10T08:53:38.510Z,91.66
2023-05-10T08:57:50.268Z,93.44
2023-05-10T09:02:03.528Z,93.28
2023-05-10T09:06:15.397Z,91.62
2023-05-10T09:10:28.598Z,91.64
2023-05-10T09:14:41.035Z,88.09
2023-05-10T09:18:52.656Z,88.02
2023-05-10T09:23:04.233Z,89.83
2023-05-10T09:27:15.795Z,87.61
2023-05-10T09:31:52.357Z,84.69
2023-05-10T09:36:10.125Z,85.44
2023-05-10T09:40:26.560Z,85.51
2023-05-10T09:44:39.059Z,87.72
2023-05-10T09:48:50.593Z,84.53
2023-05-10T09:53:04.407Z,84.65
2023-05-10T09:57:23.888Z,84.45
2023-05-10T10:01:36.209Z,86.20
2023-05-10T10:05:49.657Z,81.16
2023-05-10T10:10:01.519Z,78.73
2023-05-10T10:14:13.660Z,77.40
2023-05-10T10:18:28.322Z,77.30
2023-05-10T10:22:40.756Z,76.44
2023-05-10T10:26:58.185Z,75.08
2023-05-10T10:31:30.463Z,73.78
2023-05-10T10:35:44.583Z,75.22
2023-05-10T10:39:57.313Z,73.71
2023-05-10T10:44:27.914Z,72.05
2023-05-10T10:48:40.361Z,74.70
2023-05-10T10:52:53.356Z,76.39
2023-05-10T10:57:14.143Z,74.88
2023-05-10T11:01:34.814Z,74.96
2023-05-10T11:05:48.491Z,73.94
2023-05-10T11:10:06.472Z,72.80
2023-05-10T11:14:22.613Z,70.83
2023-05-10T11:18:34.445Z,70.76
2023-05-10T11:22:56.484Z,71.56
2023-05-10T11:27:09.146Z,73.54
2023-05-10T11:31:22.455Z,73.33
2023-05-10T11:35:42.504Z,73.99
2023-05-10T11:39:56.582Z,72.51
2023-05-10T11:44:10.836Z,72.63
2023-05-10T11:48:25.268Z,70.50
2023-05-10T11:52:38.917Z,72.10
2023-05-10T11:56:51.738Z,68.67
2023-05-10T12:01:05.682Z,66.29
2023-05-10T12:05:18.458Z,65.44
2023-05-10T12:09:43.058Z,64.88
2023-05-10T12:13:57.600Z,64.71
2023-05-10T12:18:12.253Z,62.86
2023-05-10T12:22:24.364Z,62.35
2023-05-10T12:26:37.102Z,62.16
2023-05-10T12:30:49.343Z,61.66
2023-05-10T12:35:01.403Z,58.11
2023-05-10T12:39:13.288Z,58.88
2023-05-10T12:43:25.909Z,59.65
2023-05-10T12:47:39.243Z,57.92
2023-05-10T12:51:51.844Z,57.94
2023-05-10T12:56:03.552Z,57.26
2023-05-10T13:00:15.791Z,57.94
2023-05-10T13:04:28.189Z,57.76
2023-05-10T13:08:40.164Z,58.77
2023-05-10T13:12:52.362Z,57.59
2023-05-10T13:17:04.290Z,56.81
2023-05-10T13:21:16.235Z,53.95
2023-05-10T13:25:27.809Z,54.53
2023-05-10T13:29:39.445Z,54.43
2023-05-10T13:33:51.192Z,55.26
2023-05-10T13:38:03.001Z,56.37
2023-05-10T13:42:14.626Z,56.10
2023-05-10T13:46:26.534Z,56.58
2023-05-10T13:50:38.036Z,56.67
2023-05-10T13:54:49.639Z,57.12
2023-05-10T13:59:01.427Z,57.07
2023-05-10T14:03:13.072Z,55.49
2023-05-10T14:07:24.686Z,56.45
2023-05-10T14:11:36.241Z,56.14
2023-05-10T14:15:47.790Z,57.08
2023-05-10T14:19:59.480Z,56.74
2023-05-10T14:24:11.107Z,57.29
2023-05-10T14:28:23.617Z,56.54
2023-05-10T14:32:37.472Z,55.97
2023-05-10T14:36:49.020Z,56.96
2023-05-10T14:41:00.531Z,58.51
2023-05-10T14:45:12.991Z,58.48
2023-05-10T14:49:26.560Z,57.71
2023-05-10T14:53:38.045Z,59.07
2023-05-10T14:57:51.213Z,59.12
2023-05-10T15:02:02.736Z,56.34
2023-05-10T15:06:16.756Z,56.46
2023-05-10T15:10:28.263Z,55.66
2023-05-10T15:14:40.848Z,55.99
2023-05-10T15:18:52.405Z,57.62
2023-05-10T15:23:04.130Z,57.57
2023-05-10T15:27:15.676Z,60.41
2023-05-10T15:31:28.123Z,60.19
2023-05-10T15:35:40.505Z,61.87
2023-05-10T15:39:52.027Z,63.18
2023-05-10T15:44:03.674Z,63.99
2023-05-10T15:48:15.218Z,67.98
2023-05-10T15:52:27.231Z,77.32
2023-05-10T15:56:39.350Z,82.84
2023-05-10T16:00:50.942Z,88.04
2023-05-10T16:05:02.562Z,89.01
2023-05-10T16:09:14.319Z,90.28
2023-05-10T16:13:26.229Z,89.09
2023-05-10T16:17:37.938Z,91.86
2023-05-10T16:21:49.931Z,99.04
2023-05-10T16:26:01.449Z,99.58
2023-05-10T16:30:13.077Z,99.48
2023-05-10T16:34:25.373Z,96.03
2023-05-10T16:38:37.631Z,92.90
2023-05-10T16:42:49.227Z,89.07
2023-05-10T16:47:00.774Z,87.47
2023-05-10T16:51:12.407Z,82.50
2023-05-10T16:55:26.248Z,80.90
2023-05-10T16:59:38.203Z,79.80
2023-05-10T17:03:49.885Z,81.39
2023-05-10T17:08:01.626Z,82.52
2023-05-10T17:12:13.161Z,82.48
2023-05-10T17:16:24.752Z,83.67
2023-05-10T17:20:36.262Z,82.86
2023-05-10T17:24:47.758Z,83.73
2023-05-10T17:28:59.255Z,85.81
2023-05-10T17:33:10.875Z,87.23
2023-05-10T17:37:22.849Z,89.50
2023-05-10T17:41:34.377Z,90.70
2023-05-10T17:45:47.925Z,93.34
2023-05-10T17:49:59.518Z,94.25
2023-05-10T17:54:11.011Z,94.60
2023-05-10T17:58:22.601Z,94.93
2023-05-10T18:02:36.655Z,96.49
2023-05-10T18:06:49.257Z,96.84
2023-05-10T18:11:01.026Z,96.54
2023-05-10T18:15:12.611Z,94.09
2023-05-10T18:19:27.066Z,93.21
2023-05-10T18:23:38.686Z,92.62
2023-05-10T18:27:50.502Z,91.51
2023-05-10T18:32:01.994Z,93.26
2023-05-10T18:36:14.160Z,94.32
2023-05-10T18:40:26.903Z,94.77
2023-05-10T18:44:38.430Z,92.82
2023-05-10T18:48:49.936Z,91.37
2023-05-10T18:53:01.479Z,91.80
2023-05-10T18:57:13.732Z,93.73
2023-05-10T19:01:25.470Z,93.71
2023-05-10T19:05:37.052Z,94.91
2023-05-10T19:09:48.554Z,95.58
2023-05-10T19:14:01.337Z,97.58
2023-05-10T19:18:12.874Z,97.44
2023-05-10T19:22:35.403Z,97.93
2023-05-10T19:26:56.229Z,97.47
2023-05-10T19:31:08.029Z,96.10
2023-05-10T19:35:19.645Z,96.94
2023-05-10T19:39:32.502Z,97.12
2023-05-10T19:43:43.990Z,96.58
2023-05-10T19:47:55.551Z,96.19
2023-05-10T19:52:11.873Z,96.91
2023-05-10T19:56:23.555Z,97.87
2023-05-10T20:00:35.504Z,100.00
2023-05-10T20:04:47.221Z,100.00
2023-05-10T20:08:58.724Z,100.00
2023-05-10T20:13:10.225Z,100.00
2023-05-10T20:17:21.855Z,100.00
2023-05-10T20:21:33.724Z,100.00
2023-05-10T20:25:45.310Z,100.00
2023-05-10T20:29:56.824Z,100.00
2023-05-10T20:34:08.354Z,100.00
2023-05-10T20:38:19.886Z,100.00
2023-05-10T20:42:31.472Z,100.00
2023-05-10T20:46:43.297Z,100.00
2023-05-10T20:50:54.870Z,100.00
2023-05-10T20:55:06.943Z,100.00
2023-05-10T20:59:19.075Z,100.00
2023-05-10T21:03:30.597Z,100.00
2023-05-10T21:07:42.102Z,100.00
2023-05-10T21:11:53.621Z,100.00
2023-05-10T21:16:05.338Z,100.00
2023-05-10T21:20:17.141Z,100.00
2023-05-10T21:24:29.037Z,100.00
2023-05-10T21:28:42.356Z,100.00
